Time;durP1;ratioP1;P1;durP2;ratioP2;P2;SDS_P1;SDS_P2;PMS_P1;PMS_P2;Temp;Humidity;BMP_temperature;BMP_pressure;BME280_temperature;BME280_humidity;BME280_pressure;Samples;Min_cycle;Max_cycle;Signal;HPM_P1;HPM_P2
2022/11/05 00:11:10;;;;;;;3.27;3.07;;;;;;;;;;5078649;28;20600;-60
2022/11/05 00:19:19;;;;;;;3.30;3.10;;;;;;;;;;5004117;28;20825;-62
2022/11/05 00:27:12;;;;;;;4.00;3.60;;;;;;;;;;5078627;28;20679;-61
2022/11/05 00:29:37;;;;;;;3.73;3.43;;;;;;;;;;5075387;28;20605;-60
2022/11/05 00:32:02;;;;;;;3.40;3.20;;;;;;;;;;5087157;28;20710;-59
2022/11/05 00:34:28;;;;;;;3.30;3.10;;;;;;;;;;5075509;28;20174;-60
2022/11/05 00:36:53;;;;;;;3.40;3.10;;;;;;;;;;5078405;28;20185;-60
2022/11/05 00:39:18;;;;;;;3.37;3.17;;;;;;;;;;5072150;28;20657;-60
2022/11/05 00:44:58;;;;;;;3.07;2.83;;;;;;;;;;5082514;28;20173;-60
2022/11/05 00:49:56;;;;;;;3.33;3.13;;;;;;;;;;5070682;28;21209;-61
2022/11/05 00:55:05;;;;;;;3.03;2.83;;;;;;;;;;5082429;28;20182;-61
2022/11/05 00:57:30;;;;;;;3.13;2.93;;;;;;;;;;5084303;28;20612;-63
2022/11/05 00:59:55;;;;;;;3.60;3.40;;;;;;;;;;5075085;28;20178;-63
2022/11/05 01:02:20;;;;;;;3.08;2.83;;;;;;;;;;5086103;28;20228;-64
2022/11/05 01:04:45;;;;;;;3.33;3.03;;;;;;;;;;5086185;28;20175;-64
2022/11/05 01:07:11;;;;;;;2.93;2.73;;;;;;;;;;5088861;28;20656;-64
2022/11/05 01:09:37;;;;;;;3.67;3.37;;;;;;;;;;5089361;28;20186;-63
2022/11/05 01:12:02;;;;;;;3.40;3.20;;;;;;;;;;5075270;28;20675;-64
2022/11/05 01:14:27;;;;;;;4.23;3.50;;;;;;;;;;5072384;28;20210;-63
2022/11/05 01:16:53;;;;;;;3.50;3.20;;;;;;;;;;5084098;28;20183;-62
2022/11/05 01:19:18;;;;;;;2.93;2.77;;;;;;;;;;5077001;28;20188;-63
2022/11/05 01:21:43;;;;;;;4.57;3.10;;;;;;;;;;5077507;28;20558;-63
2022/11/05 01:24:09;;;;;;;3.08;2.88;;;;;;;;;;5082607;28;20190;-63
2022/11/05 01:26:34;;;;;;;2.97;2.87;;;;;;;;;;5088967;28;20564;-63
2022/11/05 01:28:59;;;;;;;3.10;2.90;;;;;;;;;;5084056;28;20610;-62
2022/11/05 01:31:25;;;;;;;3.00;2.80;;;;;;;;;;5088229;28;20163;-63
2022/11/05 01:33:50;;;;;;;2.77;2.67;;;;;;;;;;5084336;28;20202;-60
2022/11/05 01:36:16;;;;;;;3.17;2.83;;;;;;;;;;5086605;28;20183;-61
2022/11/05 01:38:41;;;;;;;2.90;2.70;;;;;;;;;;5073839;28;20718;-60
2022/11/05 01:41:07;;;;;;;3.20;3.00;;;;;;;;;;5087691;28;20641;-60
2022/11/05 01:43:44;;;;;;;2.93;2.73;;;;;;;;;;5089293;28;20645;-61
2022/11/05 01:46:09;;;;;;;3.60;3.30;;;;;;;;;;5087443;28;20808;-60
2022/11/05 01:48:35;;;;;;;3.13;2.93;;;;;;;;;;5089747;28;20655;-61
2022/11/05 01:51:04;;;;;;;3.40;3.20;;;;;;;;;;5089443;28;20206;-60
2022/11/05 01:53:33;;;;;;;2.93;2.83;;;;;;;;;;5078812;28;20259;-59
2022/11/05 01:56:03;;;;;;;3.20;3.00;;;;;;;;;;5087680;28;20607;-61
2022/11/05 01:58:44;;;;;;;3.10;2.90;;;;;;;;;;5091784;28;20729;-59
2022/11/05 02:01:10;;;;;;;3.20;3.00;;;;;;;;;;5078319;28;21070;-60
2022/11/05 02:03:35;;;;;;;3.63;3.33;;;;;;;;;;5084211;28;20636;-60
2022/11/05 02:06:01;;;;;;;3.23;3.03;;;;;;;;;;5080853;28;20979;-60
2022/11/05 02:08:46;;;;;;;2.80;2.60;;;;;;;;;;5093079;28;20537;-60
2022/11/05 02:11:13;;;;;;;3.37;3.07;;;;;;;;;;5089198;28;20673;-60
2022/11/05 02:13:38;;;;;;;2.90;2.70;;;;;;;;;;5089324;28;20608;-61
2022/11/05 02:16:22;;;;;;;3.17;2.97;;;;;;;;;;5078815;28;20668;-59
2022/11/05 02:18:55;;;;;;;3.20;3.00;;;;;;;;;;5088513;28;20186;-60
2022/11/05 02:21:34;;;;;;;3.00;2.80;;;;;;;;;;5089258;28;20591;-60
2022/11/05 02:24:12;;;;;;;2.90;2.70;;;;;;;;;;5089358;28;20616;-60
2022/11/05 02:26:56;;;;;;;3.30;3.10;;;;;;;;;;5090742;28;20656;-60
2022/11/05 02:29:38;;;;;;;3.10;2.83;;;;;;;;;;5080027;28;20614;-60
2022/11/05 02:32:09;;;;;;;3.53;3.23;;;;;;;;;;5082758;28;20637;-60
2022/11/05 02:34:39;;;;;;;3.63;3.33;;;;;;;;;;5080456;28;20618;-60
2022/11/05 02:37:16;;;;;;;3.33;3.07;;;;;;;;;;5087821;28;20575;-61
2022/11/05 02:39:41;;;;;;;2.93;2.73;;;;;;;;;;5089497;28;20952;-60
2022/11/05 02:42:11;;;;;;;2.90;2.78;;;;;;;;;;5079742;28;20592;-60
2022/11/05 02:44:51;;;;;;;3.20;2.90;;;;;;;;;;5088077;28;20191;-61
2022/11/05 02:47:19;;;;;;;3.23;2.87;;;;;;;;;;5088755;28;20748;-60
2022/11/05 02:49:47;;;;;;;3.10;2.80;;;;;;;;;;5092768;28;20573;-60
2022/11/05 02:52:20;;;;;;;2.90;2.70;;;;;;;;;;5089247;28;20626;-60
2022/11/05 02:54:51;;;;;;;3.00;2.80;;;;;;;;;;5073433;28;20994;-60
2022/11/05 02:57:18;;;;;;;3.10;2.90;;;;;;;;;;5090828;28;20624;-60
2022/11/05 02:59:43;;;;;;;3.43;3.23;;;;;;;;;;5090550;28;20675;-60
2022/11/05 03:02:08;;;;;;;2.90;2.70;;;;;;;;;;5087010;28;20703;-60
2022/11/05 03:04:34;;;;;;;3.13;2.93;;;;;;;;;;5084632;28;20170;-60
2022/11/05 03:07:15;;;;;;;2.90;2.70;;;;;;;;;;5086690;28;20205;-61
2022/11/05 03:09:59;;;;;;;3.13;2.83;;;;;;;;;;5084080;28;20182;-61
2022/11/05 03:12:30;;;;;;;3.10;2.90;;;;;;;;;;5089588;28;21061;-60
2022/11/05 03:15:04;;;;;;;2.70;2.60;;;;;;;;;;5079099;28;20613;-60
2022/11/05 03:17:36;;;;;;;2.73;2.53;;;;;;;;;;5089152;28;20611;-60
2022/11/05 03:20:11;;;;;;;3.17;2.97;;;;;;;;;;5074073;28;20620;-60
2022/11/05 03:22:40;;;;;;;2.83;2.63;;;;;;;;;;5082639;28;21190;-61
2022/11/05 03:25:09;;;;;;;2.73;2.53;;;;;;;;;;5072249;28;20586;-61
2022/11/05 03:27:37;;;;;;;2.63;2.43;;;;;;;;;;5084752;28;20646;-61
2022/11/05 03:30:06;;;;;;;3.43;3.13;;;;;;;;;;5074529;28;21025;-61
2022/11/05 03:32:32;;;;;;;2.80;2.60;;;;;;;;;;5076616;28;20596;-61
2022/11/05 03:35:00;;;;;;;3.20;3.00;;;;;;;;;;5090801;28;20653;-62
2022/11/05 03:37:27;;;;;;;3.20;3.00;;;;;;;;;;5087218;28;21069;-60
2022/11/05 03:39:55;;;;;;;3.43;3.23;;;;;;;;;;5083551;28;20580;-61
2022/11/05 03:42:24;;;;;;;2.77;2.60;;;;;;;;;;5089563;28;20615;-61
2022/11/05 03:44:51;;;;;;;3.53;3.23;;;;;;;;;;5087541;28;20634;-60
2022/11/05 03:47:19;;;;;;;3.40;3.20;;;;;;;;;;5083351;28;20674;-60
2022/11/05 03:49:52;;;;;;;2.40;2.30;;;;;;;;;;5085948;28;20575;-61
2022/11/05 03:52:19;;;;;;;2.53;2.30;;;;;;;;;;5086029;28;20617;-61
2022/11/05 03:54:45;;;;;;;3.03;2.83;;;;;;;;;;5086606;28;20698;-61
2022/11/05 03:57:17;;;;;;;3.47;3.17;;;;;;;;;;5081110;28;20712;-61
2022/11/05 03:59:46;;;;;;;3.00;2.80;;;;;;;;;;5059782;28;20218;-60
2022/11/05 04:02:12;;;;;;;3.30;3.00;;;;;;;;;;5086223;28;20990;-60
2022/11/05 04:04:38;;;;;;;3.00;2.80;;;;;;;;;;5077355;28;20609;-61
2022/11/05 04:15:15;;;;;;;2.90;2.70;;;;;;;;;;5072837;28;20600;-61
2022/11/05 04:17:40;;;;;;;3.93;3.17;;;;;;;;;;5085794;28;20613;-60
2022/11/05 04:25:42;;;;;;;2.90;2.70;;;;;;;;;;5056193;28;21028;-61
2022/11/05 04:28:07;;;;;;;2.50;2.40;;;;;;;;;;5076318;28;20660;-61
2022/11/05 04:30:33;;;;;;;2.47;2.37;;;;;;;;;;5083658;28;20178;-62
2022/11/05 04:33:11;;;;;;;2.70;2.50;;;;;;;;;;5073557;28;20251;-60
2022/11/05 04:35:40;;;;;;;2.87;2.67;;;;;;;;;;5087680;28;20171;-61
2022/11/05 04:38:07;;;;;;;2.50;2.40;;;;;;;;;;5083473;28;20620;-61
2022/11/05 04:40:33;;;;;;;2.97;2.77;;;;;;;;;;5089165;28;20583;-60
2022/11/05 04:42:59;;;;;;;2.57;2.47;;;;;;;;;;5085721;28;21092;-60
2022/11/05 04:45:25;;;;;;;2.70;2.50;;;;;;;;;;5086894;28;20271;-60
2022/11/05 04:47:50;;;;;;;2.67;2.47;;;;;;;;;;5088047;28;20699;-60
2022/11/05 04:50:16;;;;;;;2.80;2.70;;;;;;;;;;5087472;28;20597;-61
2022/11/05 04:52:41;;;;;;;2.60;2.50;;;;;;;;;;5070397;28;20210;-60
2022/11/05 04:55:07;;;;;;;2.97;2.77;;;;;;;;;;5075164;28;20216;-60
2022/11/05 04:57:32;;;;;;;2.53;2.40;;;;;;;;;;5075117;28;20397;-61
2022/11/05 04:59:57;;;;;;;3.03;2.83;;;;;;;;;;5086166;28;20181;-62
2022/11/05 05:02:22;;;;;;;2.77;2.57;;;;;;;;;;5088500;28;20179;-61
2022/11/05 05:04:47;;;;;;;2.70;2.60;;;;;;;;;;5089931;28;20194;-61
2022/11/05 05:07:13;;;;;;;2.70;2.53;;;;;;;;;;5082116;28;20264;-61
2022/11/05 05:09:38;;;;;;;3.00;2.80;;;;;;;;;;5074421;28;20171;-60
2022/11/05 05:12:03;;;;;;;2.77;2.57;;;;;;;;;;5086250;28;20228;-61
2022/11/05 05:14:28;;;;;;;2.57;2.47;;;;;;;;;;5083564;28;20214;-61
2022/11/05 05:16:53;;;;;;;3.00;2.80;;;;;;;;;;5087881;28;20261;-62
2022/11/05 05:19:19;;;;;;;2.87;2.67;;;;;;;;;;5088303;28;20178;-61
2022/11/05 05:21:44;;;;;;;3.07;2.80;;;;;;;;;;5089579;28;20269;-61
2022/11/05 05:24:13;;;;;;;3.40;3.00;;;;;;;;;;5085641;28;20179;-60
2022/11/05 05:26:43;;;;;;;2.90;2.70;;;;;;;;;;5087482;28;20285;-61
2022/11/05 05:29:08;;;;;;;3.10;2.90;;;;;;;;;;5078382;28;20645;-61
2022/11/05 05:31:33;;;;;;;3.23;3.00;;;;;;;;;;5082780;28;20735;-62
2022/11/05 05:33:59;;;;;;;2.63;2.43;;;;;;;;;;5078109;28;20194;-62
2022/11/05 05:36:24;;;;;;;3.10;2.80;;;;;;;;;;5083791;28;20187;-62
2022/11/05 05:38:49;;;;;;;2.87;2.67;;;;;;;;;;5084431;28;20186;-62
2022/11/05 05:41:14;;;;;;;2.80;2.70;;;;;;;;;;5086085;28;20228;-61
2022/11/05 05:43:40;;;;;;;3.03;2.93;;;;;;;;;;5070102;28;20542;-60
2022/11/05 05:46:06;;;;;;;3.33;3.13;;;;;;;;;;5078494;28;20719;-60
2022/11/05 05:48:32;;;;;;;3.50;3.30;;;;;;;;;;5078988;28;20194;-59
2022/11/05 05:51:03;;;;;;;2.97;2.60;;;;;;;;;;5077232;28;20595;-60
2022/11/05 05:53:29;;;;;;;2.87;2.73;;;;;;;;;;5090054;28;20159;-60
2022/11/05 05:55:55;;;;;;;3.17;2.90;;;;;;;;;;5078226;28;21303;-60
2022/11/05 05:58:20;;;;;;;2.90;2.70;;;;;;;;;;5085547;28;20190;-60
2022/11/05 06:00:45;;;;;;;3.30;3.00;;;;;;;;;;5083022;28;20188;-61
2022/11/05 06:03:11;;;;;;;2.43;2.30;;;;;;;;;;5084705;28;20186;-60
2022/11/05 06:05:36;;;;;;;2.77;2.60;;;;;;;;;;5079605;28;20187;-61
2022/11/05 06:08:01;;;;;;;2.30;2.20;;;;;;;;;;5073366;28;20563;-61
2022/11/05 06:10:26;;;;;;;3.23;2.70;;;;;;;;;;5087417;28;20175;-61
2022/11/05 06:12:51;;;;;;;2.25;2.15;;;;;;;;;;5086487;28;20186;-61
2022/11/05 06:15:17;;;;;;;2.83;2.70;;;;;;;;;;5085409;28;20181;-61
2022/11/05 06:17:42;;;;;;;2.40;2.30;;;;;;;;;;5091993;28;20174;-60
2022/11/05 06:20:08;;;;;;;3.37;2.60;;;;;;;;;;5087592;28;20211;-60
2022/11/05 06:22:33;;;;;;;2.40;2.20;;;;;;;;;;5090170;28;21297;-60
2022/11/05 06:24:58;;;;;;;2.20;2.10;;;;;;;;;;5091643;28;20182;-61
2022/11/05 06:27:23;;;;;;;2.70;2.60;;;;;;;;;;5091289;28;20221;-60
2022/11/05 06:29:49;;;;;;;2.50;2.30;;;;;;;;;;5076750;28;20182;-60
2022/11/05 06:32:14;;;;;;;2.87;2.60;;;;;;;;;;5090105;28;20643;-60
2022/11/05 06:34:39;;;;;;;2.55;2.45;;;;;;;;;;5086007;28;20179;-60
2022/11/05 06:37:04;;;;;;;2.70;2.50;;;;;;;;;;5087263;28;20189;-60
2022/11/05 06:39:29;;;;;;;2.50;2.40;;;;;;;;;;5091421;28;20171;-61
2022/11/05 06:41:54;;;;;;;2.57;2.37;;;;;;;;;;5103672;28;20174;-60
2022/11/05 06:44:21;;;;;;;2.67;2.47;;;;;;;;;;5107131;28;20584;-60
2022/11/05 06:46:46;;;;;;;5.60;2.33;;;;;;;;;;5082794;28;20218;-60
2022/11/05 06:49:11;;;;;;;2.97;2.70;;;;;;;;;;5092195;28;20616;-60
2022/11/05 06:51:36;;;;;;;3.60;2.80;;;;;;;;;;5092712;28;20171;-60
2022/11/05 06:54:02;;;;;;;45.40;10.18;;;;;;;;;;5089903;28;20179;-59
2022/11/05 06:56:27;;;;;;;2.80;2.53;;;;;;;;;;5092119;28;20194;-59
2022/11/05 06:58:52;;;;;;;2.23;2.03;;;;;;;;;;5093169;28;20178;-59
2022/11/05 07:01:17;;;;;;;2.23;2.13;;;;;;;;;;5092303;28;20194;-59
2022/11/05 07:03:43;;;;;;;2.00;1.90;;;;;;;;;;5092326;28;20305;-59
2022/11/05 07:06:09;;;;;;;4.53;2.00;;;;;;;;;;5090049;28;20171;-59
2022/11/05 07:08:34;;;;;;;2.37;2.17;;;;;;;;;;5085686;28;20674;-59
2022/11/05 07:11:00;;;;;;;2.67;2.47;;;;;;;;;;5078917;28;20337;-59
2022/11/05 07:13:25;;;;;;;2.67;2.57;;;;;;;;;;5091064;28;20636;-59
2022/11/05 07:15:50;;;;;;;4.03;2.60;;;;;;;;;;5089987;28;20175;-59
2022/11/05 07:18:16;;;;;;;2.33;2.13;;;;;;;;;;5090263;28;20182;-59
2022/11/05 07:20:41;;;;;;;2.33;2.10;;;;;;;;;;5088302;28;20588;-59
2022/11/05 07:23:09;;;;;;;2.40;2.20;;;;;;;;;;5090546;28;20611;-59
2022/11/05 07:25:34;;;;;;;3.90;2.30;;;;;;;;;;5089686;28;20174;-59
2022/11/05 07:28:00;;;;;;;3.70;2.83;;;;;;;;;;5082676;28;20643;-59
2022/11/05 07:30:25;;;;;;;2.60;2.40;;;;;;;;;;5088794;28;20186;-59
2022/11/05 07:32:50;;;;;;;4.13;2.40;;;;;;;;;;5085322;28;20178;-60
2022/11/05 07:35:15;;;;;;;2.17;1.90;;;;;;;;;;5090939;28;20526;-60
2022/11/05 07:37:42;;;;;;;2.97;2.73;;;;;;;;;;5091509;28;20221;-59
2022/11/05 07:40:08;;;;;;;4.93;4.53;;;;;;;;;;5089481;28;20178;-61
2022/11/05 07:42:33;;;;;;;182.47;24.97;;;;;;;;;;5087009;28;20580;-63
2022/11/05 07:44:58;;;;;;;56.80;16.57;;;;;;;;;;5088014;28;20608;-61
2022/11/05 07:47:24;;;;;;;27.20;11.10;;;;;;;;;;5086385;28;20283;-61
2022/11/05 07:49:49;;;;;;;23.10;10.00;;;;;;;;;;5082771;28;20211;-63
2022/11/05 07:52:14;;;;;;;;;;;;;;;;;;5081850;28;20387;-68
2022/11/05 07:54:39;;;;;;;;;;;;;;;;;;5089432;28;19943;-72
2022/11/05 07:57:04;;;;;;;;;;;;;;;;;;5092042;28;19957;-72
2022/11/05 07:59:29;;;;;;;;;;;;;;;;;;5080825;28;20351;-69
2022/11/05 08:01:54;;;;;;;;;;;;;;;;;;5085991;28;19916;-70
2022/11/05 08:04:19;;;;;;;;;;;;;;;;;;5090934;28;19912;-67
2022/11/05 08:06:44;;;;;;;;;;;;;;;;;;5083436;28;20359;-62
2022/11/05 08:09:10;;;;;;;15.88;7.57;;;;;;;;;;5087682;28;20752;-65
2022/11/05 08:11:35;;;;;;;13.97;7.80;;;;;;;;;;5087236;28;20398;-66
2022/11/05 08:14:00;;;;;;;15.83;8.20;;;;;;;;;;5077132;28;20596;-69
2022/11/05 08:16:25;;;;;;;12.77;8.60;;;;;;;;;;5076299;28;20662;-67
2022/11/05 08:18:50;;;;;;;13.17;7.30;;;;;;;;;;5072696;28;20171;-67
2022/11/05 08:21:15;;;;;;;15.55;9.10;;;;;;;;;;5090607;28;20702;-68
2022/11/05 08:23:41;;;;;;;17.10;8.30;;;;;;;;;;5089765;28;20185;-66
2022/11/05 08:26:07;;;;;;;15.30;7.40;;;;;;;;;;5088845;28;21395;-69
2022/11/05 08:28:32;;;;;;;15.30;6.83;;;;;;;;;;5091049;28;20574;-68
2022/11/05 08:30:57;;;;;;;12.70;7.33;;;;;;;;;;5091052;28;20254;-74
2022/11/05 08:33:23;;;;;;;22.90;8.03;;;;;;;;;;5081471;28;20197;-68
2022/11/05 08:35:49;;;;;;;24.57;8.07;;;;;;;;;;5090837;28;20167;-68
2022/11/05 08:38:15;;;;;;;28.27;8.30;;;;;;;;;;5081511;28;21129;-72
2022/11/05 08:40:41;;;;;;;18.53;7.30;;;;;;;;;;5088608;28;20190;-66
2022/11/05 08:43:06;;;;;;;20.80;7.60;;;;;;;;;;5085934;28;21161;-64
2022/11/05 08:45:32;;;;;;;11.73;6.70;;;;;;;;;;5091618;28;20217;-66
2022/11/05 08:47:58;;;;;;;18.63;7.77;;;;;;;;;;5091629;28;20194;-66
2022/11/05 08:50:23;;;;;;;14.33;7.13;;;;;;;;;;5078798;28;20271;-66
2022/11/05 08:52:48;;;;;;;17.03;7.30;;;;;;;;;;5086619;28;20682;-66
2022/11/05 08:55:17;;;;;;;24.83;7.90;;;;;;;;;;5077015;28;20175;-67
2022/11/05 08:57:42;;;;;;;13.77;7.27;;;;;;;;;;5082198;28;20217;-67
2022/11/05 09:00:08;;;;;;;19.83;6.97;;;;;;;;;;5085808;28;20624;-66
2022/11/05 09:02:33;;;;;;;13.70;7.00;;;;;;;;;;5086332;28;20557;-67
2022/11/05 09:04:58;;;;;;;19.93;8.10;;;;;;;;;;5086031;28;20209;-67
2022/11/05 09:07:23;;;;;;;39.13;14.30;;;;;;;;;;5081986;28;20217;-67
2022/11/05 09:09:48;;;;;;;49.23;14.20;;;;;;;;;;5084151;28;20230;-67
2022/11/05 09:12:14;;;;;;;46.03;13.03;;;;;;;;;;5083254;28;20194;-68
2022/11/05 09:14:39;;;;;;;29.77;12.07;;;;;;;;;;5089828;28;20395;-64
2022/11/05 09:17:10;;;;;;;29.77;11.80;;;;;;;;;;5090289;28;20167;-67
2022/11/05 09:19:36;;;;;;;32.83;10.40;;;;;;;;;;5090862;28;20166;-68
2022/11/05 09:22:01;;;;;;;38.83;9.80;;;;;;;;;;5082671;28;20564;-69
2022/11/05 09:24:26;;;;;;;28.75;11.35;;;;;;;;;;5078871;28;20190;-70
2022/11/05 09:26:51;;;;;;;25.33;9.53;;;;;;;;;;5086146;28;20546;-67
2022/11/05 09:29:16;;;;;;;23.00;9.33;;;;;;;;;;5089851;28;20183;-69
2022/11/05 09:31:41;;;;;;;30.63;9.70;;;;;;;;;;5089445;28;20171;-67
2022/11/05 09:34:07;;;;;;;26.13;9.77;;;;;;;;;;5076302;28;20171;-68
2022/11/05 09:36:32;;;;;;;22.50;9.25;;;;;;;;;;5077126;28;20187;-69
2022/11/05 09:38:57;;;;;;;25.65;8.63;;;;;;;;;;5084923;28;20645;-68
2022/11/05 09:41:28;;;;;;;24.33;9.70;;;;;;;;;;5084242;28;20175;-69
2022/11/05 09:43:55;;;;;;;20.60;7.83;;;;;;;;;;5086285;28;20179;-68
2022/11/05 09:46:22;;;;;;;17.40;8.07;;;;;;;;;;5086411;28;20622;-69
2022/11/05 09:48:50;;;;;;;20.87;8.73;;;;;;;;;;5089344;28;20578;-69
2022/11/05 09:51:16;;;;;;;20.07;9.10;;;;;;;;;;5073588;28;20544;-69
2022/11/05 09:53:42;;;;;;;21.00;7.83;;;;;;;;;;5073269;28;20545;-70
2022/11/05 09:56:18;;;;;;;14.07;7.70;;;;;;;;;;5078266;28;20178;-69
2022/11/05 09:58:46;;;;;;;18.63;8.47;;;;;;;;;;5073241;28;20574;-69
2022/11/05 10:01:21;;;;;;;22.70;8.07;;;;;;;;;;5078526;28;20559;-69
2022/11/05 10:03:48;;;;;;;16.27;7.87;;;;;;;;;;5093706;28;20538;-70
2022/11/05 10:06:18;;;;;;;18.07;7.67;;;;;;;;;;5093301;28;20596;-70
2022/11/05 10:08:45;;;;;;;11.73;7.53;;;;;;;;;;5093254;28;20568;-70
2022/11/05 10:11:18;;;;;;;17.60;7.87;;;;;;;;;;5093101;28;20632;-70
2022/11/05 10:13:45;;;;;;;14.30;7.23;;;;;;;;;;5093195;28;20575;-70
2022/11/05 10:16:20;;;;;;;11.53;6.97;;;;;;;;;;5093336;28;21222;-69
2022/11/05 10:18:47;;;;;;;12.90;7.50;;;;;;;;;;5093831;28;20576;-70
2022/11/05 10:21:16;;;;;;;13.83;7.13;;;;;;;;;;5085300;28;20581;-68
2022/11/05 10:23:43;;;;;;;14.67;7.50;;;;;;;;;;5089642;28;20609;-68
2022/11/05 10:26:13;;;;;;;10.47;6.93;;;;;;;;;;5092446;28;20574;-67
2022/11/05 10:28:38;;;;;;;12.13;7.23;;;;;;;;;;5092861;28;20610;-68
2022/11/05 10:31:05;;;;;;;16.90;7.83;;;;;;;;;;5092710;28;20579;-68
2022/11/05 10:33:57;;;;;;;15.30;7.40;;;;;;;;;;5092854;28;20640;-68
2022/11/05 10:36:23;;;;;;;15.70;7.83;;;;;;;;;;5087388;28;20605;-68
2022/11/05 10:38:49;;;;;;;14.10;6.73;;;;;;;;;;5078203;28;20700;-68
2022/11/05 10:41:17;;;;;;;16.17;6.97;;;;;;;;;;5079788;28;20761;-68
2022/11/05 10:43:46;;;;;;;10.50;6.40;;;;;;;;;;5089105;28;20179;-69
2022/11/05 10:46:21;;;;;;;11.20;6.73;;;;;;;;;;5091249;28;20667;-69
2022/11/05 10:48:55;;;;;;;9.90;6.70;;;;;;;;;;5091199;28;20664;-68
2022/11/05 10:51:21;;;;;;;10.30;6.23;;;;;;;;;;5084698;28;20588;-69
2022/11/05 10:53:49;;;;;;;8.70;6.43;;;;;;;;;;5088949;28;21039;-69
2022/11/05 10:56:33;;;;;;;9.90;6.90;;;;;;;;;;5074578;28;20171;-68
2022/11/05 10:58:59;;;;;;;9.70;6.33;;;;;;;;;;5089700;28;20581;-68
2022/11/05 11:01:25;;;;;;;8.00;6.40;;;;;;;;;;5087351;28;20575;-68
2022/11/05 11:03:51;;;;;;;7.83;6.40;;;;;;;;;;5088098;28;20197;-68
2022/11/05 11:06:20;;;;;;;12.40;7.20;;;;;;;;;;5079813;28;20167;-68
2022/11/05 11:08:46;;;;;;;7.30;6.10;;;;;;;;;;5085055;28;20583;-68
2022/11/05 11:11:23;;;;;;;9.93;6.13;;;;;;;;;;5086549;28;20911;-68
2022/11/05 11:13:50;;;;;;;10.03;6.93;;;;;;;;;;5081366;28;20609;-68
2022/11/05 11:16:20;;;;;;;7.80;5.80;;;;;;;;;;5080300;28;20575;-68
2022/11/05 11:18:45;;;;;;;8.00;5.73;;;;;;;;;;5077290;28;21176;-68
2022/11/05 11:21:10;;;;;;;8.67;5.90;;;;;;;;;;5085918;28;20643;-68
2022/11/05 11:23:36;;;;;;;11.98;5.50;;;;;;;;;;5084536;28;20171;-72
2022/11/05 11:26:02;;;;;;;9.73;4.80;;;;;;;;;;5082592;28;20178;-65
2022/11/05 11:28:31;;;;;;;8.77;4.97;;;;;;;;;;5082439;28;20763;-66
2022/11/05 11:31:19;;;;;;;12.53;5.13;;;;;;;;;;5088688;28;20178;-66
2022/11/05 11:33:48;;;;;;;9.23;4.93;;;;;;;;;;5084799;28;20609;-62
2022/11/05 11:36:16;;;;;;;9.13;4.80;;;;;;;;;;5086480;28;20631;-67
2022/11/05 11:38:41;;;;;;;7.77;4.40;;;;;;;;;;5081563;28;20665;-66
2022/11/05 11:41:09;;;;;;;11.13;4.30;;;;;;;;;;5086990;28;20609;-66
2022/11/05 11:43:36;;;;;;;7.60;4.37;;;;;;;;;;5082428;28;20202;-66
2022/11/05 11:46:03;;;;;;;14.07;5.30;;;;;;;;;;5081026;28;20638;-68
2022/11/05 11:48:29;;;;;;;10.70;4.80;;;;;;;;;;5089483;28;20625;-67
2022/11/05 11:50:54;;;;;;;16.70;7.30;;;;;;;;;;5073647;28;20609;-67
2022/11/05 11:53:19;;;;;;;11.60;7.30;;;;;;;;;;5083581;28;20335;-68
2022/11/05 11:55:55;;;;;;;20.83;9.70;;;;;;;;;;5077618;28;20183;-67
2022/11/05 11:58:36;;;;;;;14.63;8.20;;;;;;;;;;5082043;28;20809;-67
2022/11/05 12:01:05;;;;;;;15.00;8.90;;;;;;;;;;5086012;28;20737;-67
2022/11/05 12:03:54;;;;;;;13.40;7.43;;;;;;;;;;5076972;28;20621;-67
2022/11/05 12:06:29;;;;;;;13.73;7.00;;;;;;;;;;5068891;28;21113;-67
2022/11/05 12:09:16;;;;;;;10.83;6.90;;;;;;;;;;5072904;28;20606;-67
2022/11/05 12:11:44;;;;;;;9.47;7.00;;;;;;;;;;5076584;28;20612;-67
2022/11/05 12:14:18;;;;;;;14.77;7.23;;;;;;;;;;5071369;28;20594;-67
2022/11/05 12:16:57;;;;;;;66.70;13.23;;;;;;;;;;5080028;28;21191;-64
2022/11/05 12:19:22;;;;;;;10.50;6.67;;;;;;;;;;5086495;28;20612;-63
2022/11/05 12:21:47;;;;;;;15.23;6.90;;;;;;;;;;5066706;28;21387;-61
2022/11/05 12:24:15;;;;;;;9.75;6.53;;;;;;;;;;5084276;28;20191;-61
2022/11/05 12:26:59;;;;;;;10.90;6.53;;;;;;;;;;5079131;28;20206;-63
2022/11/05 12:29:33;;;;;;;10.63;6.50;;;;;;;;;;5082869;28;20595;-62
2022/11/05 12:32:31;;;;;;;10.77;6.63;;;;;;;;;;5072124;28;20645;-63
2022/11/05 12:35:12;;;;;;;8.67;6.03;;;;;;;;;;5040713;28;20603;-63
2022/11/05 12:37:40;;;;;;;14.07;6.10;;;;;;;;;;5082225;28;20620;-63
2022/11/05 12:40:16;;;;;;;13.93;5.97;;;;;;;;;;5079933;28;20653;-62
2022/11/05 12:42:59;;;;;;;15.97;5.93;;;;;;;;;;5082068;28;20556;-61
2022/11/05 12:45:27;;;;;;;16.40;6.43;;;;;;;;;;5079801;28;20696;-61
2022/11/05 12:47:53;;;;;;;8.97;6.07;;;;;;;;;;5077981;28;20641;-60
2022/11/05 12:50:25;;;;;;;11.87;5.70;;;;;;;;;;5086636;28;21208;-61
2022/11/05 12:52:56;;;;;;;10.87;6.13;;;;;;;;;;5093390;28;20203;-59
2022/11/05 12:55:22;;;;;;;14.80;6.10;;;;;;;;;;5073458;28;20596;-59
2022/11/05 12:57:50;;;;;;;13.00;6.10;;;;;;;;;;5067997;28;20648;-59
2022/11/05 13:00:23;;;;;;;7.77;5.50;;;;;;;;;;5084487;28;20636;-59
2022/11/05 13:02:53;;;;;;;8.30;6.20;;;;;;;;;;5086387;28;20579;-59
2022/11/05 13:05:26;;;;;;;9.57;5.50;;;;;;;;;;5080891;28;20640;-60
2022/11/05 13:08:09;;;;;;;8.40;5.70;;;;;;;;;;5082650;28;21102;-61
2022/11/05 13:10:50;;;;;;;8.60;5.23;;;;;;;;;;5079701;28;20586;-60
2022/11/05 13:13:28;;;;;;;8.90;5.80;;;;;;;;;;5079776;28;20607;-60
2022/11/05 13:15:55;;;;;;;10.13;4.73;;;;;;;;;;5081324;28;20617;-61
2022/11/05 13:18:24;;;;;;;8.77;5.03;;;;;;;;;;5083095;28;20620;-59
2022/11/05 13:20:51;;;;;;;8.47;5.60;;;;;;;;;;5081305;28;20596;-61
2022/11/05 13:23:16;;;;;;;10.53;5.10;;;;;;;;;;5073066;28;20611;-61
2022/11/05 13:25:48;;;;;;;8.03;5.00;;;;;;;;;;5080348;28;21211;-62
2022/11/05 13:28:19;;;;;;;7.13;5.17;;;;;;;;;;5078131;28;20722;-62
2022/11/05 13:30:52;;;;;;;7.40;5.60;;;;;;;;;;5088879;28;20620;-64
2022/11/05 13:33:17;;;;;;;7.43;5.30;;;;;;;;;;5081561;28;20592;-63
2022/11/05 13:35:45;;;;;;;5.85;5.10;;;;;;;;;;5084588;28;20607;-62
2022/11/05 13:41:30;;;;;;;7.40;4.87;;;;;;;;;;5084119;28;21210;-62
2022/11/05 13:44:01;;;;;;;8.77;4.80;;;;;;;;;;5088324;28;21237;-60
2022/11/05 13:46:47;;;;;;;8.17;4.60;;;;;;;;;;5073544;28;20658;-64
2022/11/05 13:49:22;;;;;;;6.60;5.27;;;;;;;;;;5087325;28;20598;-64
2022/11/05 13:52:02;;;;;;;7.33;4.80;;;;;;;;;;5084109;28;20593;-61
2022/11/05 13:54:54;;;;;;;7.17;4.70;;;;;;;;;;5075092;28;20604;-70
2022/11/05 13:57:32;;;;;;;10.67;5.03;;;;;;;;;;5083962;28;20588;-58
2022/11/05 14:00:20;;;;;;;7.70;4.67;;;;;;;;;;5091480;28;21095;-58
2022/11/05 14:02:51;;;;;;;7.53;4.77;;;;;;;;;;5069902;28;20589;-59
2022/11/05 14:05:20;;;;;;;21.00;5.83;;;;;;;;;;5079082;28;20978;-58
2022/11/05 14:07:46;;;;;;;13.17;4.90;;;;;;;;;;5080506;28;21018;-57
2022/11/05 14:10:30;;;;;;;15.63;5.83;;;;;;;;;;5081518;28;20588;-66
2022/11/05 14:12:56;;;;;;;36.73;8.30;;;;;;;;;;5080707;28;20258;-68
2022/11/05 14:15:27;;;;;;;22.60;7.50;;;;;;;;;;5081348;28;20681;-71
2022/11/05 14:17:58;;;;;;;24.53;7.00;;;;;;;;;;5087867;28;20578;-70
2022/11/05 14:20:29;;;;;;;25.43;7.53;;;;;;;;;;5091786;28;20626;-68
2022/11/05 14:23:14;;;;;;;32.60;9.60;;;;;;;;;;5087911;28;20646;-71
